Weather at Sibu Airport

Public forecast

Using degrees Celsius for public forecast. Weather courtesy of forecast.io.

Current aviation weather report (METAR) for Sibu Airport

2024/02/25 12:00 (retrieved 12 minutes ago)

WBGS 251200Z VRB02KT 9999 -RA SCT016 27/26 Q1010 RERA

Aviation forecast (TAF) for Sibu Airport

2024/02/25 12:00 (retrieved 12 minutes ago)

TAF WBGS 251100Z 2512/2612 VRB02KT 9999 FEW018 TEMPO 2512/2516 6000 RA SCT016